createdAt,value
2018-07-10T00:04:54.608Z,5.53
2018-07-10T00:11:16.311Z,6.33
2018-07-10T00:16:20.623Z,4.53
2018-07-10T00:21:24.628Z,4.07
2018-07-10T00:26:28.645Z,5.93
2018-07-10T00:31:32.663Z,5.97
2018-07-10T00:36:36.662Z,4.27
2018-07-10T00:41:41.691Z,7.27
2018-07-10T00:46:46.461Z,7.17
2018-07-10T00:51:50.212Z,7.03
2018-07-10T00:56:54.090Z,7.40
2018-07-10T01:01:58.117Z,5.07
2018-07-10T01:07:02.129Z,7.13
2018-07-10T01:12:05.884Z,3.97
2018-07-10T01:17:09.776Z,5.57
2018-07-10T01:22:13.527Z,5.90
2018-07-10T01:27:17.412Z,6.50
2018-07-10T01:32:21.423Z,7.90
2018-07-10T01:37:25.423Z,5.63
2018-07-10T01:42:29.684Z,4.67
2018-07-10T01:47:33.679Z,3.10
2018-07-10T01:52:37.720Z,5.57
2018-07-10T01:57:41.728Z,5.10
2018-07-10T02:02:45.747Z,3.43
2018-07-10T02:07:49.768Z,4.10
2018-07-10T02:12:54.631Z,5.40
2018-07-10T02:17:58.791Z,6.43
2018-07-10T02:23:02.782Z,5.80
2018-07-10T02:28:06.788Z,6.07
2018-07-10T02:33:10.782Z,5.27
2018-07-10T02:38:14.792Z,5.67
2018-07-10T02:43:18.932Z,6.63
2018-07-10T02:48:27.842Z,4.43
2018-07-10T02:53:32.606Z,5.00
2018-07-10T02:58:36.604Z,3.53
2018-07-10T03:03:41.742Z,7.37
2018-07-10T03:08:45.957Z,4.07
2018-07-10T03:13:49.956Z,6.07
2018-07-10T03:18:53.981Z,2.87
2018-07-10T03:23:57.743Z,2.83
2018-07-10T03:29:01.629Z,3.53
2018-07-10T03:34:05.662Z,3.17
2018-07-10T03:39:09.308Z,3.83
2018-07-10T03:44:13.212Z,3.53
2018-07-10T03:49:17.202Z,3.13
2018-07-10T03:54:21.485Z,5.77
2018-07-10T03:59:25.487Z,5.33
2018-07-10T04:04:29.735Z,3.30
2018-07-10T04:09:33.858Z,2.80
2018-07-10T04:14:37.891Z,4.93
2018-07-10T04:19:41.904Z,3.83
2018-07-10T04:24:46.423Z,4.83
2018-07-10T04:29:57.748Z,3.20
2018-07-10T04:35:01.801Z,3.20
2018-07-10T04:40:05.859Z,3.60
2018-07-10T04:45:11.308Z,5.97
2018-07-10T04:50:26.046Z,3.10
2018-07-10T04:55:32.073Z,3.23
2018-07-10T05:00:43.563Z,2.47
2018-07-10T05:05:47.787Z,2.63
2018-07-10T05:10:53.118Z,2.60
2018-07-10T05:15:59.547Z,4.23
2018-07-10T05:21:09.687Z,4.67
2018-07-10T05:26:15.430Z,3.17
2018-07-10T05:31:19.436Z,3.17
2018-07-10T05:36:24.552Z,3.77
2018-07-10T05:41:28.548Z,2.90
2018-07-10T05:46:32.820Z,4.27
2018-07-10T05:51:54.227Z,4.50
2018-07-10T05:56:58.217Z,5.63
2018-07-10T06:02:02.215Z,2.67
2018-07-10T06:07:06.227Z,6.37
2018-07-10T06:12:10.234Z,3.67
2018-07-10T06:17:14.243Z,6.20
2018-07-10T06:22:25.319Z,3.50
2018-07-10T06:29:00.434Z,3.20
2018-07-10T06:34:10.487Z,3.73
2018-07-10T06:39:15.313Z,5.80
2018-07-10T06:45:21.929Z,6.50
2018-07-10T06:50:26.079Z,4.53
2018-07-10T06:55:30.840Z,6.77
2018-07-10T07:00:34.875Z,4.63
2018-07-10T07:05:39.779Z,5.20
2018-07-10T07:10:43.785Z,6.20
2018-07-10T07:15:47.562Z,5.40
2018-07-10T07:20:52.254Z,2.60
2018-07-10T07:25:56.284Z,10.40
2018-07-10T07:31:00.292Z,4.53
2018-07-10T07:36:04.291Z,3.43
2018-07-10T07:41:08.305Z,4.27
2018-07-10T07:46:12.350Z,7.40
2018-07-10T07:51:16.439Z,7.77
2018-07-10T07:56:20.607Z,5.03
2018-07-10T08:01:25.856Z,7.30
2018-07-10T08:06:29.891Z,2.73
2018-07-10T08:11:34.040Z,3.00
2018-07-10T08:16:38.043Z,5.17
2018-07-10T08:21:43.305Z,3.87
2018-07-10T08:26:48.455Z,4.37
2018-07-10T08:31:53.204Z,4.47
2018-07-10T08:36:57.223Z,6.07
2018-07-10T08:42:04.812Z,3.90
2018-07-10T08:47:09.473Z,4.23
2018-07-10T08:52:13.915Z,5.07
2018-07-10T08:57:18.083Z,4.47
2018-07-10T09:02:22.103Z,6.67
2018-07-10T09:07:26.138Z,2.47
2018-07-10T09:12:30.959Z,3.07
2018-07-10T09:17:35.023Z,4.90
2018-07-10T09:22:39.057Z,6.43
2018-07-10T09:27:44.005Z,2.70
2018-07-10T09:32:48.008Z,4.20
2018-07-10T09:37:51.825Z,5.77
2018-07-10T09:42:57.882Z,7.57
2018-07-10T09:48:02.387Z,3.97
2018-07-10T09:53:06.857Z,7.10
2018-07-10T09:58:10.820Z,4.23
2018-07-10T10:03:14.818Z,5.97
2018-07-10T10:08:18.584Z,7.93
2018-07-10T10:13:22.487Z,5.97
2018-07-10T10:18:27.416Z,5.80
2018-07-10T10:23:31.415Z,5.93
2018-07-10T10:28:36.326Z,7.23
2018-07-10T10:33:40.411Z,6.60
2018-07-10T10:38:46.235Z,6.63
2018-07-10T10:43:50.274Z,7.47
2018-07-10T10:48:55.016Z,6.40
2018-07-10T10:53:59.109Z,5.93
2018-07-10T10:59:03.151Z,7.93
2018-07-10T11:04:07.148Z,7.63
2018-07-10T11:09:11.503Z,6.67
2018-07-10T11:14:15.502Z,10.83
2018-07-10T11:19:26.977Z,10.00
2018-07-10T11:24:34.900Z,8.60
2018-07-10T11:29:38.792Z,4.93
2018-07-10T11:34:42.804Z,8.17
2018-07-10T11:39:46.812Z,8.30
2018-07-10T11:44:50.822Z,4.47
2018-07-10T11:49:54.950Z,10.17
2018-07-10T11:54:59.076Z,7.33
2018-07-10T12:00:03.072Z,6.80
2018-07-10T12:05:06.858Z,6.33
2018-07-10T12:10:20.929Z,7.60
2018-07-10T12:15:25.267Z,8.63
2018-07-10T12:20:46.196Z,10.83
2018-07-10T12:25:50.171Z,7.07
2018-07-10T12:30:54.244Z,5.47
2018-07-10T12:35:58.316Z,8.13
2018-07-10T12:41:02.372Z,7.67
2018-07-10T12:46:06.636Z,11.37
2018-07-10T12:51:10.414Z,6.53
2018-07-10T12:56:14.388Z,8.00
2018-07-10T13:01:18.363Z,8.07
2018-07-10T13:06:22.389Z,6.13
2018-07-10T13:11:26.402Z,9.80
2018-07-10T13:16:30.468Z,15.03
2018-07-10T13:21:34.493Z,10.47
2018-07-10T13:26:38.571Z,8.23
2018-07-10T13:31:42.555Z,9.60
2018-07-10T13:36:46.551Z,8.87
2018-07-10T13:41:51.092Z,9.27
2018-07-10T13:46:55.072Z,7.67
2018-07-10T13:51:59.067Z,14.53
2018-07-10T13:57:03.201Z,6.73
2018-07-10T14:02:07.199Z,6.67
2018-07-10T14:07:11.235Z,11.50
2018-07-10T14:12:15.255Z,5.93
2018-07-10T14:17:20.152Z,9.03
2018-07-10T14:22:24.868Z,8.00
2018-07-10T14:27:28.847Z,7.10
2018-07-10T14:32:32.835Z,5.93
2018-07-10T14:37:36.898Z,8.43
2018-07-10T14:42:40.875Z,12.47
2018-07-10T14:47:46.107Z,8.27
2018-07-10T14:52:50.184Z,11.30
2018-07-10T14:57:54.544Z,13.03
2018-07-10T15:02:58.566Z,11.23
2018-07-10T15:08:02.629Z,12.93
2018-07-10T15:13:06.645Z,11.13
2018-07-10T15:18:16.016Z,14.20
2018-07-10T15:23:20.027Z,11.50
2018-07-10T15:28:24.005Z,11.50
2018-07-10T15:33:28.050Z,12.40
2018-07-10T15:38:32.163Z,8.03
2018-07-10T15:43:36.170Z,11.60
2018-07-10T15:48:40.187Z,10.87
2018-07-10T15:53:43.943Z,12.10
2018-07-10T15:58:47.886Z,12.40
2018-07-10T16:03:51.926Z,12.23
2018-07-10T16:09:06.582Z,15.20
2018-07-10T16:14:10.828Z,15.43
2018-07-10T16:19:17.219Z,14.93
2018-07-10T16:24:21.360Z,11.97
2018-07-10T16:29:25.461Z,11.87
2018-07-10T16:34:29.465Z,9.70
2018-07-10T16:39:33.488Z,12.00
2018-07-10T16:44:38.186Z,13.03
2018-07-10T16:49:44.442Z,10.80
2018-07-10T16:54:48.465Z,10.47
2018-07-10T16:59:52.584Z,6.97
2018-07-10T17:04:56.587Z,9.20
2018-07-10T17:10:00.564Z,6.30
2018-07-10T17:15:04.567Z,8.10
2018-07-10T17:20:11.385Z,13.67
2018-07-10T17:25:15.499Z,12.30
2018-07-10T17:30:19.495Z,8.10
2018-07-10T17:35:23.686Z,9.50
2018-07-10T17:40:27.721Z,8.17
2018-07-10T17:45:31.720Z,7.13
2018-07-10T17:50:35.582Z,8.97
2018-07-10T17:55:39.495Z,7.67
2018-07-10T18:00:43.611Z,8.30
2018-07-10T18:05:47.631Z,4.27
2018-07-10T18:10:51.398Z,5.47
2018-07-10T18:15:55.308Z,3.40
2018-07-10T18:20:59.674Z,6.63
2018-07-10T18:26:03.667Z,4.53
2018-07-10T18:31:07.674Z,4.57
2018-07-10T18:36:11.659Z,4.20
2018-07-10T18:41:15.716Z,4.57
2018-07-10T18:46:19.736Z,4.47
2018-07-10T18:51:23.871Z,5.87
2018-07-10T18:56:27.903Z,5.90
2018-07-10T19:02:09.940Z,8.37
2018-07-10T19:07:13.937Z,6.40
2018-07-10T19:12:18.171Z,4.83
2018-07-10T19:17:26.034Z,6.43
2018-07-10T19:22:44.442Z,3.60
2018-07-10T19:27:50.479Z,5.83
2018-07-10T19:32:54.495Z,4.27
2018-07-10T19:37:58.516Z,4.77
2018-07-10T19:43:02.553Z,3.93
2018-07-10T19:48:06.545Z,4.87
2018-07-10T19:53:11.031Z,2.70
2018-07-10T19:58:46.098Z,2.97
2018-07-10T20:04:00.947Z,2.83
2018-07-10T20:09:05.675Z,2.63
2018-07-10T20:14:10.791Z,2.23
2018-07-10T20:19:20.827Z,2.57
2018-07-10T20:24:25.007Z,1.83
2018-07-10T20:30:37.381Z,2.23
2018-07-10T20:35:47.146Z,1.87
2018-07-10T20:40:51.267Z,2.77
2018-07-10T20:45:56.082Z,2.03
2018-07-10T20:51:03.511Z,4.17
2018-07-10T20:56:13.668Z,2.60
2018-07-10T21:01:17.719Z,2.13
2018-07-10T21:06:27.895Z,2.10
2018-07-10T21:11:34.341Z,2.77
2018-07-10T21:17:13.269Z,2.37
2018-07-10T21:22:32.969Z,2.60
2018-07-10T21:28:45.610Z,2.37
2018-07-10T21:33:57.113Z,3.80
2018-07-10T21:39:14.077Z,1.30
2018-07-10T21:44:43.015Z,3.43
2018-07-10T21:49:50.660Z,1.37
2018-07-10T21:54:54.650Z,3.23
2018-07-10T22:00:00.160Z,2.27
2018-07-10T22:05:04.132Z,2.60
2018-07-10T22:10:08.719Z,4.87
2018-07-10T22:15:12.713Z,4.60
2018-07-10T22:20:16.727Z,4.10
2018-07-10T22:25:20.464Z,1.50
2018-07-10T22:30:29.646Z,1.90
2018-07-10T22:35:33.636Z,3.10
2018-07-10T22:40:37.650Z,1.43
2018-07-10T22:45:41.668Z,3.73
2018-07-10T22:50:45.683Z,1.50
2018-07-10T22:55:49.774Z,2.23
2018-07-10T23:00:53.448Z,1.60
2018-07-10T23:05:57.379Z,1.73
2018-07-10T23:11:04.276Z,1.97
2018-07-10T23:16:08.336Z,4.20
2018-07-10T23:21:13.788Z,1.50
2018-07-10T23:26:19.230Z,3.53
2018-07-10T23:31:28.234Z,1.20
2018-07-10T23:36:32.231Z,1.87
2018-07-10T23:41:44.109Z,1.30
2018-07-10T23:46:54.105Z,0.80
2018-07-10T23:52:09.277Z,1.03
2018-07-10T23:57:13.290Z,1.70
